sensor_id;sensor_type;location;lat;lon;timestamp;pressure;altitude;pressure_sealevel;temperature;humidity
75697;BME280;64312;44.738;20.612;2023-04-06T00:01:38;100406.31;;;4.19;60.45
75697;BME280;64312;44.738;20.612;2023-04-06T00:04:04;100492.34;;;4.56;60.81
75697;BME280;64312;44.738;20.612;2023-04-06T00:06:30;100227.94;;;2.99;60.70
75697;BME280;64312;44.738;20.612;2023-04-06T00:08:56;100401.00;;;4.09;59.66
75697;BME280;64312;44.738;20.612;2023-04-06T00:11:22;100452.81;;;4.52;59.94
75697;BME280;64312;44.738;20.612;2023-04-06T00:13:48;100389.13;;;4.03;59.96
75697;BME280;64312;44.738;20.612;2023-04-06T00:16:13;100389.56;;;3.99;61.20
75697;BME280;64312;44.738;20.612;2023-04-06T00:18:39;100417.53;;;3.85;59.94
75697;BME280;64312;44.738;20.612;2023-04-06T00:21:05;100392.50;;;3.68;60.96
75697;BME280;64312;44.738;20.612;2023-04-06T00:23:31;100246.28;;;2.83;60.93
75697;BME280;64312;44.738;20.612;2023-04-06T00:25:57;100212.91;;;2.70;61.28
75697;BME280;64312;44.738;20.612;2023-04-06T00:28:23;100480.28;;;4.25;61.12
75697;BME280;64312;44.738;20.612;2023-04-06T00:30:52;100410.09;;;3.89;60.78
75697;BME280;64312;44.738;20.612;2023-04-06T00:33:19;100435.72;;;3.99;60.59
75697;BME280;64312;44.738;20.612;2023-04-06T00:35:45;100400.25;;;3.62;61.39
75697;BME280;64312;44.738;20.612;2023-04-06T00:38:11;100374.06;;;3.57;61.28
75697;BME280;64312;44.738;20.612;2023-04-06T00:40:38;100456.16;;;3.99;61.16
75697;BME280;64312;44.738;20.612;2023-04-06T00:43:05;100449.53;;;3.75;61.80
75697;BME280;64312;44.738;20.612;2023-04-06T00:45:32;100448.94;;;3.82;61.91
75697;BME280;64312;44.738;20.612;2023-04-06T00:47:58;100222.59;;;2.42;61.90
75697;BME280;64312;44.738;20.612;2023-04-06T00:50:24;100262.91;;;2.94;62.23
75697;BME280;64312;44.738;20.612;2023-04-06T00:52:50;100381.72;;;3.70;62.62
75697;BME280;64312;44.738;20.612;2023-04-06T00:55:21;100350.97;;;3.48;61.68
75697;BME280;64312;44.738;20.612;2023-04-06T00:57:47;100305.00;;;3.09;61.73
75697;BME280;64312;44.738;20.612;2023-04-06T01:00:14;100453.22;;;4.02;61.70
75697;BME280;64312;44.738;20.612;2023-04-06T01:02:43;100250.81;;;2.72;60.80
75697;BME280;64312;44.738;20.612;2023-04-06T01:05:11;100412.56;;;3.63;61.86
75697;BME280;64312;44.738;20.612;2023-04-06T01:07:47;100347.44;;;3.10;61.57
75697;BME280;64312;44.738;20.612;2023-04-06T01:10:25;100419.09;;;3.78;61.25
75697;BME280;64312;44.738;20.612;2023-04-06T01:12:57;100389.50;;;3.44;62.09
75697;BME280;64312;44.738;20.612;2023-04-06T01:15:58;100395.75;;;3.62;61.75
75697;BME280;64312;44.738;20.612;2023-04-06T01:18:41;100416.72;;;3.75;61.66
75697;BME280;64312;44.738;20.612;2023-04-06T01:21:15;100364.19;;;3.20;61.43
75697;BME280;64312;44.738;20.612;2023-04-06T01:23:51;100400.25;;;3.52;62.44
75697;BME280;64312;44.738;20.612;2023-04-06T01:26:23;100413.88;;;3.49;62.46
75697;BME280;64312;44.738;20.612;2023-04-06T01:28:51;100426.28;;;3.68;62.11
75697;BME280;64312;44.738;20.612;2023-04-06T01:31:25;100361.09;;;3.35;61.98
75697;BME280;64312;44.738;20.612;2023-04-06T01:33:52;100179.59;;;2.20;62.23
75697;BME280;64312;44.738;20.612;2023-04-06T01:36:21;100328.84;;;2.81;62.56
75697;BME280;64312;44.738;20.612;2023-04-06T01:38:54;100220.66;;;2.35;62.25
75697;BME280;64312;44.738;20.612;2023-04-06T01:41:27;100262.16;;;2.55;62.68
75697;BME280;64312;44.738;20.612;2023-04-06T01:43:53;100430.38;;;3.62;62.71
75697;BME280;64312;44.738;20.612;2023-04-06T01:46:22;100414.91;;;3.19;63.29
75697;BME280;64312;44.738;20.612;2023-04-06T01:48:49;100300.47;;;2.72;63.63
75697;BME280;64312;44.738;20.612;2023-04-06T01:51:20;100352.03;;;3.08;62.49
75697;BME280;64312;44.738;20.612;2023-04-06T01:53:52;100212.41;;;2.28;64.12
75697;BME280;64312;44.738;20.612;2023-04-06T01:56:21;100316.41;;;2.82;62.96
75697;BME280;64312;44.738;20.612;2023-04-06T01:59:00;100357.22;;;3.19;63.68
75697;BME280;64312;44.738;20.612;2023-04-06T02:01:34;100362.53;;;3.19;62.97
75697;BME280;64312;44.738;20.612;2023-04-06T02:04:00;100439.84;;;3.74;62.75
75697;BME280;64312;44.738;20.612;2023-04-06T02:06:25;100295.97;;;2.82;63.35
75697;BME280;64312;44.738;20.612;2023-04-06T02:08:52;100335.66;;;3.22;62.65
75697;BME280;64312;44.738;20.612;2023-04-06T02:11:18;100155.56;;;1.92;62.94
75697;BME280;64312;44.738;20.612;2023-04-06T02:13:48;100291.41;;;2.65;62.81
75697;BME280;64312;44.738;20.612;2023-04-06T02:16:15;100350.25;;;2.99;63.08
75697;BME280;64312;44.738;20.612;2023-04-06T02:18:44;100186.28;;;2.04;62.81
75697;BME280;64312;44.738;20.612;2023-04-06T02:21:10;100152.91;;;2.02;62.94
75697;BME280;64312;44.738;20.612;2023-04-06T02:23:36;100376.25;;;3.24;62.94
75697;BME280;64312;44.738;20.612;2023-04-06T02:26:02;100382.25;;;3.26;62.95
75697;BME280;64312;44.738;20.612;2023-04-06T02:28:28;100274.75;;;2.43;63.68
75697;BME280;64312;44.738;20.612;2023-04-06T02:30:53;100266.22;;;2.59;63.54
75697;BME280;64312;44.738;20.612;2023-04-06T02:33:24;100362.59;;;2.81;63.45
75697;BME280;64312;44.738;20.612;2023-04-06T02:35:50;100408.81;;;3.46;63.74
75697;BME280;64312;44.738;20.612;2023-04-06T02:38:15;100011.88;;;1.19;63.85
75697;BME280;64312;44.738;20.612;2023-04-06T02:40:41;100258.09;;;2.70;62.66
75697;BME280;64312;44.738;20.612;2023-04-06T02:43:25;100313.19;;;2.97;63.06
75697;BME280;64312;44.738;20.612;2023-04-06T02:46:01;100431.63;;;3.58;62.75
75697;BME280;64312;44.738;20.612;2023-04-06T02:48:27;100407.66;;;3.58;63.59
75697;BME280;64312;44.738;20.612;2023-04-06T02:50:52;100138.38;;;1.96;64.17
75697;BME280;64312;44.738;20.612;2023-04-06T02:53:18;100328.41;;;3.05;63.14
75697;BME280;64312;44.738;20.612;2023-04-06T02:55:44;100409.38;;;3.49;63.88
75697;BME280;64312;44.738;20.612;2023-04-06T02:58:10;100408.75;;;3.65;64.21
75697;BME280;64312;44.738;20.612;2023-04-06T03:00:43;100126.91;;;1.96;63.30
75697;BME280;64312;44.738;20.612;2023-04-06T03:03:09;100325.03;;;3.13;63.21
75697;BME280;64312;44.738;20.612;2023-04-06T03:05:35;100319.69;;;3.22;64.03
75697;BME280;64312;44.738;20.612;2023-04-06T03:08:01;100279.03;;;2.93;63.64
75697;BME280;64312;44.738;20.612;2023-04-06T03:10:40;100407.09;;;3.64;63.06
75697;BME280;64312;44.738;20.612;2023-04-06T03:13:06;100366.25;;;3.46;63.37
75697;BME280;64312;44.738;20.612;2023-04-06T03:15:45;100007.84;;;1.25;62.28
75697;BME280;64312;44.738;20.612;2023-04-06T03:18:15;100258.66;;;2.64;63.25
75697;BME280;64312;44.738;20.612;2023-04-06T03:20:44;100300.59;;;2.90;63.00
75697;BME280;64312;44.738;20.612;2023-04-06T03:23:13;100400.31;;;3.42;63.49
75697;BME280;64312;44.738;20.612;2023-04-06T03:25:40;100414.72;;;3.49;64.26
75697;BME280;64312;44.738;20.612;2023-04-06T03:28:09;100136.00;;;1.83;62.69
75697;BME280;64312;44.738;20.612;2023-04-06T03:30:42;100399.63;;;3.21;62.58
75697;BME280;64312;44.738;20.612;2023-04-06T03:33:08;100434.59;;;3.45;63.16
75697;BME280;64312;44.738;20.612;2023-04-06T03:35:41;100294.59;;;2.78;62.58
75697;BME280;64312;44.738;20.612;2023-04-06T03:38:07;100333.19;;;2.82;63.86
75697;BME280;64312;44.738;20.612;2023-04-06T03:40:32;100188.13;;;1.94;63.85
75697;BME280;64312;44.738;20.612;2023-04-06T03:42:58;100361.59;;;2.82;64.55
75697;BME280;64312;44.738;20.612;2023-04-06T03:45:24;100354.47;;;2.53;64.24
75697;BME280;64312;44.738;20.612;2023-04-06T03:47:50;100325.25;;;2.72;64.56
75697;BME280;64312;44.738;20.612;2023-04-06T03:50:17;100317.53;;;2.50;64.71
75697;BME280;64312;44.738;20.612;2023-04-06T03:52:43;100379.22;;;2.83;64.70
75697;BME280;64312;44.738;20.612;2023-04-06T03:55:09;100434.66;;;3.16;64.85
75697;BME280;64312;44.738;20.612;2023-04-06T03:57:35;100228.34;;;1.99;64.76
75697;BME280;64312;44.738;20.612;2023-04-06T04:00:01;100173.28;;;1.62;64.82
75697;BME280;64312;44.738;20.612;2023-04-06T04:02:38;100220.25;;;1.81;65.25
75697;BME280;64312;44.738;20.612;2023-04-06T04:05:04;100428.06;;;3.01;65.42
75697;BME280;64312;44.738;20.612;2023-04-06T04:07:29;100397.97;;;2.81;65.46
75697;BME280;64312;44.738;20.612;2023-04-06T04:09:56;100210.03;;;1.77;65.40
75697;BME280;64312;44.738;20.612;2023-04-06T04:12:21;100162.38;;;1.46;66.31
75697;BME280;64312;44.738;20.612;2023-04-06T04:14:47;100306.53;;;2.45;66.37
75697;BME280;64312;44.738;20.612;2023-04-06T04:17:13;100391.41;;;2.85;66.36
75697;BME280;64312;44.738;20.612;2023-04-06T04:19:39;100378.81;;;2.87;65.68
75697;BME280;64312;44.738;20.612;2023-04-06T04:22:04;100384.41;;;2.94;65.98
75697;BME280;64312;44.738;20.612;2023-04-06T04:24:33;100325.53;;;2.40;66.26
75697;BME280;64312;44.738;20.612;2023-04-06T04:27:00;100347.47;;;2.62;65.62
75697;BME280;64312;44.738;20.612;2023-04-06T04:29:30;100409.19;;;2.85;66.16
75697;BME280;64312;44.738;20.612;2023-04-06T04:32:01;100369.44;;;2.54;65.50
75697;BME280;64312;44.738;20.612;2023-04-06T04:34:27;100003.81;;;0.51;65.97
75697;BME280;64312;44.738;20.612;2023-04-06T04:36:53;100426.94;;;3.13;66.02
75697;BME280;64312;44.738;20.612;2023-04-06T04:39:27;100282.88;;;2.23;66.12
75697;BME280;64312;44.738;20.612;2023-04-06T04:42:00;100416.00;;;3.26;65.80
75697;BME280;64312;44.738;20.612;2023-04-06T04:44:27;100363.00;;;2.76;65.11
75697;BME280;64312;44.738;20.612;2023-04-06T04:46:53;100047.88;;;1.12;64.85
75697;BME280;64312;44.738;20.612;2023-04-06T04:49:23;100394.75;;;3.16;65.13
75697;BME280;64312;44.738;20.612;2023-04-06T04:51:50;100124.69;;;1.72;64.67
75697;BME280;64312;44.738;20.612;2023-04-06T04:54:24;100421.28;;;3.45;65.46
75697;BME280;64312;44.738;20.612;2023-04-06T04:56:50;100434.06;;;3.42;65.21
75697;BME280;64312;44.738;20.612;2023-04-06T04:59:38;100413.31;;;3.45;65.81
75697;BME280;64312;44.738;20.612;2023-04-06T05:02:15;100395.28;;;3.30;64.96
75697;BME280;64312;44.738;20.612;2023-04-06T05:04:51;100094.13;;;1.68;66.05
75697;BME280;64312;44.738;20.612;2023-04-06T05:07:20;100422.47;;;3.70;65.17
75697;BME280;64312;44.738;20.612;2023-04-06T05:09:48;100407.09;;;3.64;64.09
75697;BME280;64312;44.738;20.612;2023-04-06T05:12:14;100359.97;;;3.28;64.22
75697;BME280;64312;44.738;20.612;2023-04-06T05:14:51;100371.63;;;3.26;65.06
75697;BME280;64312;44.738;20.612;2023-04-06T05:17:19;100435.78;;;3.70;65.14
75697;BME280;64312;44.738;20.612;2023-04-06T05:19:44;100320.00;;;3.10;64.99
75697;BME280;64312;44.738;20.612;2023-04-06T05:22:13;100441.72;;;4.01;64.98
75697;BME280;64312;44.738;20.612;2023-04-06T05:24:44;100417.44;;;4.04;63.69
75697;BME280;64312;44.738;20.612;2023-04-06T05:27:10;100406.41;;;3.99;63.60
75697;BME280;64312;44.738;20.612;2023-04-06T05:29:37;100293.78;;;3.52;63.47
75697;BME280;64312;44.738;20.612;2023-04-06T05:32:03;100206.81;;;3.25;63.61
75697;BME280;64312;44.738;20.612;2023-04-06T05:34:29;100407.72;;;4.76;64.86
75697;BME280;64312;44.738;20.612;2023-04-06T05:36:55;100364.91;;;4.60;64.07
75697;BME280;64312;44.738;20.612;2023-04-06T05:39:24;100400.16;;;5.07;64.92
75697;BME280;64312;44.738;20.612;2023-04-06T05:41:52;100303.66;;;4.68;63.78
75697;BME280;64312;44.738;20.612;2023-04-06T05:44:37;100392.47;;;5.22;63.43
75697;BME280;64312;44.738;20.612;2023-04-06T05:47:10;100401.63;;;5.46;62.12
75697;BME280;64312;44.738;20.612;2023-04-06T05:49:38;100352.47;;;5.30;62.15
75697;BME280;64312;44.738;20.612;2023-04-06T05:52:08;100373.47;;;5.51;61.82
75697;BME280;64312;44.738;20.612;2023-04-06T05:54:35;100443.75;;;5.86;63.28
75697;BME280;64312;44.738;20.612;2023-04-06T05:57:02;100155.72;;;4.46;62.54
75697;BME280;64312;44.738;20.612;2023-04-06T05:59:30;100390.34;;;6.20;62.43
75697;BME280;64312;44.738;20.612;2023-04-06T06:01:56;100357.06;;;6.06;61.46
75697;BME280;64312;44.738;20.612;2023-04-06T06:04:22;100307.00;;;5.74;60.01
75697;BME280;64312;44.738;20.612;2023-04-06T06:06:52;100340.97;;;5.64;59.53
75697;BME280;64312;44.738;20.612;2023-04-06T06:09:23;100324.28;;;5.62;59.01
75697;BME280;64312;44.738;20.612;2023-04-06T06:12:02;100382.84;;;5.89;58.62
75697;BME280;64312;44.738;20.612;2023-04-06T06:14:29;100300.19;;;5.20;58.18
75697;BME280;64312;44.738;20.612;2023-04-06T06:16:55;100253.13;;;4.84;58.42
75697;BME280;64312;44.738;20.612;2023-04-06T06:19:22;100132.56;;;4.21;57.71
75697;BME280;64312;44.738;20.612;2023-04-06T06:21:49;100282.63;;;5.09;57.36
75697;BME280;64312;44.738;20.612;2023-04-06T06:24:15;100201.38;;;5.03;57.98
75697;BME280;64312;44.738;20.612;2023-04-06T06:26:40;100348.03;;;5.99;56.43
75697;BME280;64312;44.738;20.612;2023-04-06T06:29:08;100226.41;;;5.44;57.71
75697;BME280;64312;44.738;20.612;2023-04-06T06:31:36;100157.63;;;5.22;57.77
75697;BME280;64312;44.738;20.612;2023-04-06T06:34:02;100272.16;;;5.92;56.25
75697;BME280;64312;44.738;20.612;2023-04-06T06:36:29;100361.97;;;6.35;55.29
75697;BME280;64312;44.738;20.612;2023-04-06T06:38:57;100314.00;;;5.75;54.57
75697;BME280;64312;44.738;20.612;2023-04-06T06:41:24;100384.75;;;5.97;55.72
75697;BME280;64312;44.738;20.612;2023-04-06T06:43:52;100126.56;;;4.19;55.23
75697;BME280;64312;44.738;20.612;2023-04-06T06:46:18;100293.31;;;5.09;56.37
75697;BME280;64312;44.738;20.612;2023-04-06T06:48:44;100254.97;;;4.84;56.48
75697;BME280;64312;44.738;20.612;2023-04-06T06:51:09;100196.72;;;4.27;57.53
75697;BME280;64312;44.738;20.612;2023-04-06T06:53:39;100353.75;;;5.00;57.49
75697;BME280;64312;44.738;20.612;2023-04-06T06:56:05;100385.41;;;5.39;57.71
75697;BME280;64312;44.738;20.612;2023-04-06T06:58:31;100353.25;;;4.97;56.78
75697;BME280;64312;44.738;20.612;2023-04-06T07:00:58;100216.38;;;4.26;58.14
75697;BME280;64312;44.738;20.612;2023-04-06T07:03:25;100303.91;;;4.57;57.98
75697;BME280;64312;44.738;20.612;2023-04-06T07:05:53;100396.44;;;5.18;58.62
75697;BME280;64312;44.738;20.612;2023-04-06T07:08:21;100377.75;;;5.18;57.28
75697;BME280;64312;44.738;20.612;2023-04-06T07:10:48;100334.97;;;4.84;58.19
75697;BME280;64312;44.738;20.612;2023-04-06T07:13:14;100388.06;;;5.39;58.12
75697;BME280;64312;44.738;20.612;2023-04-06T07:15:49;100145.00;;;3.76;58.34
75697;BME280;64312;44.738;20.612;2023-04-06T07:18:16;100254.41;;;4.37;58.86
75697;BME280;64312;44.738;20.612;2023-04-06T07:20:42;100397.06;;;5.38;59.23
75697;BME280;64312;44.738;20.612;2023-04-06T07:23:08;100335.25;;;4.99;59.37
75697;BME280;64312;44.738;20.612;2023-04-06T07:25:34;100181.41;;;4.29;59.57
75697;BME280;64312;44.738;20.612;2023-04-06T07:28:02;100249.06;;;4.54;57.56
75697;BME280;64312;44.738;20.612;2023-04-06T07:30:29;100365.56;;;5.67;57.25
75697;BME280;64312;44.738;20.612;2023-04-06T07:32:55;100285.19;;;5.19;55.38
75697;BME280;64312;44.738;20.612;2023-04-06T07:35:24;100301.22;;;5.27;55.45
75697;BME280;64312;44.738;20.612;2023-04-06T07:37:52;100389.81;;;5.82;55.55
75697;BME280;64312;44.738;20.612;2023-04-06T07:40:19;100147.75;;;4.54;55.25
75697;BME280;64312;44.738;20.612;2023-04-06T07:42:46;100360.41;;;5.74;54.35
75697;BME280;64312;44.738;20.612;2023-04-06T07:45:12;100340.81;;;5.65;54.20
75697;BME280;64312;44.738;20.612;2023-04-06T07:47:37;100318.81;;;5.37;55.01
75697;BME280;64312;44.738;20.612;2023-04-06T07:50:03;100321.69;;;5.44;54.76
75697;BME280;64312;44.738;20.612;2023-04-06T07:52:30;100373.97;;;5.81;55.09
75697;BME280;64312;44.738;20.612;2023-04-06T07:54:59;100359.63;;;5.90;54.04
75697;BME280;64312;44.738;20.612;2023-04-06T07:57:24;100182.97;;;4.92;54.27
75697;BME280;64312;44.738;20.612;2023-04-06T07:59:50;100359.28;;;6.19;54.81
75697;BME280;64312;44.738;20.612;2023-04-06T08:02:16;100282.63;;;5.85;53.77
75697;BME280;64312;44.738;20.612;2023-04-06T08:04:43;100129.63;;;4.92;53.58
75697;BME280;64312;44.738;20.612;2023-04-06T08:07:08;100350.09;;;6.30;52.68
75697;BME280;64312;44.738;20.612;2023-04-06T08:09:34;100329.16;;;6.01;53.74
75697;BME280;64312;44.738;20.612;2023-04-06T08:12:00;100143.47;;;4.61;54.48
75697;BME280;64312;44.738;20.612;2023-04-06T08:14:26;100314.63;;;5.69;53.67
75697;BME280;64312;44.738;20.612;2023-04-06T08:16:52;100272.06;;;5.33;53.40
75697;BME280;64312;44.738;20.612;2023-04-06T08:19:18;100315.88;;;5.83;53.52
75697;BME280;64312;44.738;20.612;2023-04-06T08:21:44;100345.09;;;6.27;53.49
75697;BME280;64312;44.738;20.612;2023-04-06T08:24:12;100363.16;;;6.41;53.35
75697;BME280;64312;44.738;20.612;2023-04-06T08:26:38;100367.16;;;6.29;53.83
75697;BME280;64312;44.738;20.612;2023-04-06T08:29:04;100366.84;;;6.40;55.01
75697;BME280;64312;44.738;20.612;2023-04-06T08:31:33;100297.47;;;6.22;54.55
75697;BME280;64312;44.738;20.612;2023-04-06T08:33:59;99978.59;;;4.41;54.70
75697;BME280;64312;44.738;20.612;2023-04-06T08:36:25;100236.91;;;5.80;53.10
75697;BME280;64312;44.738;20.612;2023-04-06T08:38:51;100167.84;;;5.43;53.60
75697;BME280;64312;44.738;20.612;2023-04-06T08:41:18;100357.03;;;6.65;52.80
75697;BME280;64312;44.738;20.612;2023-04-06T08:43:46;100327.09;;;6.61;52.99
75697;BME280;64312;44.738;20.612;2023-04-06T08:46:13;100366.72;;;6.74;51.41
75697;BME280;64312;44.738;20.612;2023-04-06T08:48:40;100149.16;;;5.35;51.29
75697;BME280;64312;44.738;20.612;2023-04-06T08:51:06;100384.13;;;6.94;52.09
75697;BME280;64312;44.738;20.612;2023-04-06T08:53:32;100363.06;;;6.99;51.71
75697;BME280;64312;44.738;20.612;2023-04-06T08:55:58;100183.84;;;5.93;49.42
75697;BME280;64312;44.738;20.612;2023-04-06T08:58:27;100087.22;;;5.31;51.21
75697;BME280;64312;44.738;20.612;2023-04-06T09:00:54;100355.03;;;6.83;52.29
75697;BME280;64312;44.738;20.612;2023-04-06T09:03:20;100335.66;;;6.89;49.50
75697;BME280;64312;44.738;20.612;2023-04-06T09:05:46;100276.94;;;6.55;49.93
75697;BME280;64312;44.738;20.612;2023-04-06T09:08:13;100118.19;;;5.83;51.57
75697;BME280;64312;44.738;20.612;2023-04-06T09:10:42;100334.63;;;7.06;48.99
75697;BME280;64312;44.738;20.612;2023-04-06T09:13:08;100356.16;;;7.38;50.05
75697;BME280;64312;44.738;20.612;2023-04-06T09:15:34;100284.78;;;6.97;49.50
75697;BME280;64312;44.738;20.612;2023-04-06T09:18:01;100135.41;;;5.96;49.31
75697;BME280;64312;44.738;20.612;2023-04-06T09:20:26;100121.88;;;6.22;48.74
75697;BME280;64312;44.738;20.612;2023-04-06T09:22:54;100332.53;;;7.49;46.99
75697;BME280;64312;44.738;20.612;2023-04-06T09:25:24;100379.25;;;7.55;43.95
75697;BME280;64312;44.738;20.612;2023-04-06T09:28:00;100191.53;;;6.70;45.66
75697;BME280;64312;44.738;20.612;2023-04-06T09:30:26;100257.97;;;7.22;45.15
75697;BME280;64312;44.738;20.612;2023-04-06T09:32:54;100392.19;;;7.91;44.54
75697;BME280;64312;44.738;20.612;2023-04-06T09:35:21;100356.31;;;7.92;45.20
75697;BME280;64312;44.738;20.612;2023-04-06T09:37:48;100120.47;;;6.59;44.07
75697;BME280;64312;44.738;20.612;2023-04-06T09:40:14;100352.31;;;7.96;43.80
75697;BME280;64312;44.738;20.612;2023-04-06T09:42:46;100293.97;;;7.98;45.42
75697;BME280;64312;44.738;20.612;2023-04-06T09:45:12;100378.63;;;8.31;42.71
75697;BME280;64312;44.738;20.612;2023-04-06T09:47:40;100278.31;;;7.78;42.86
75697;BME280;64312;44.738;20.612;2023-04-06T09:50:09;100169.41;;;7.31;44.71
75697;BME280;64312;44.738;20.612;2023-04-06T09:52:40;100244.03;;;7.74;44.39
75697;BME280;64312;44.738;20.612;2023-04-06T09:55:08;100344.47;;;8.25;41.75
75697;BME280;64312;44.738;20.612;2023-04-06T09:58:07;100349.41;;;8.45;43.10
75697;BME280;64312;44.738;20.612;2023-04-06T10:00:53;100202.03;;;7.66;42.29
75697;BME280;64312;44.738;20.612;2023-04-06T10:03:55;100361.59;;;8.78;41.33
75697;BME280;64312;44.738;20.612;2023-04-06T10:06:23;100307.91;;;8.24;41.80
75697;BME280;64312;44.738;20.612;2023-04-06T10:08:55;100323.47;;;8.60;42.69
75697;BME280;64312;44.738;20.612;2023-04-06T10:11:22;100303.91;;;8.51;41.42
75697;BME280;64312;44.738;20.612;2023-04-06T10:13:48;100282.69;;;8.64;42.69
75697;BME280;64312;44.738;20.612;2023-04-06T10:16:15;100350.88;;;9.31;42.04
75697;BME280;64312;44.738;20.612;2023-04-06T10:18:47;100339.91;;;9.55;42.95
75697;BME280;64312;44.738;20.612;2023-04-06T10:21:20;100329.78;;;9.42;40.77
75697;BME280;64312;44.738;20.612;2023-04-06T10:23:52;100251.03;;;8.75;39.54
75697;BME280;64312;44.738;20.612;2023-04-06T10:26:20;100130.22;;;7.62;39.55
75697;BME280;64312;44.738;20.612;2023-04-06T10:28:47;100330.56;;;9.13;38.95
75697;BME280;64312;44.738;20.612;2023-04-06T10:31:13;100223.34;;;8.59;40.01
75697;BME280;64312;44.738;20.612;2023-04-06T10:33:39;100273.47;;;8.82;40.03
75697;BME280;64312;44.738;20.612;2023-04-06T10:36:13;100311.88;;;9.20;40.50
75697;BME280;64312;44.738;20.612;2023-04-06T10:38:41;100267.94;;;8.98;37.63
75697;BME280;64312;44.738;20.612;2023-04-06T10:41:08;100315.06;;;9.68;37.44
75697;BME280;64312;44.738;20.612;2023-04-06T10:43:36;100206.09;;;9.36;39.34
75697;BME280;64312;44.738;20.612;2023-04-06T10:46:03;100084.94;;;8.65;39.79
75697;BME280;64312;44.738;20.612;2023-04-06T10:48:44;100276.81;;;10.02;39.84
75697;BME280;64312;44.738;20.612;2023-04-06T10:51:16;100299.63;;;10.06;39.79
75697;BME280;64312;44.738;20.612;2023-04-06T10:53:45;100259.59;;;9.82;38.45
75697;BME280;64312;44.738;20.612;2023-04-06T10:56:16;100209.81;;;9.05;37.91
75697;BME280;64312;44.738;20.612;2023-04-06T10:58:49;100309.28;;;10.00;40.49
75697;BME280;64312;44.738;20.612;2023-04-06T11:01:20;100229.34;;;9.43;38.17
75697;BME280;64312;44.738;20.612;2023-04-06T11:03:48;100082.81;;;8.46;38.38
75697;BME280;64312;44.738;20.612;2023-04-06T11:06:25;100335.03;;;10.10;38.13
75697;BME280;64312;44.738;20.612;2023-04-06T11:08:53;100236.72;;;10.07;40.16
75697;BME280;64312;44.738;20.612;2023-04-06T11:11:23;100224.75;;;10.24;38.95
75697;BME280;64312;44.738;20.612;2023-04-06T11:16:19;100067.38;;;9.49;38.92
75697;BME280;64312;44.738;20.612;2023-04-06T11:21:39;100296.53;;;10.67;35.90
75697;BME280;64312;44.738;20.612;2023-04-06T11:24:10;100282.34;;;10.51;36.07
75697;BME280;64312;44.738;20.612;2023-04-06T11:26:47;99932.13;;;8.42;36.65
75697;BME280;64312;44.738;20.612;2023-04-06T11:29:24;100041.28;;;9.07;35.42
75697;BME280;64312;44.738;20.612;2023-04-06T11:31:52;100315.06;;;10.55;38.28
75697;BME280;64312;44.738;20.612;2023-04-06T11:34:22;100097.28;;;9.61;36.62
75697;BME280;64312;44.738;20.612;2023-04-06T11:36:53;100222.31;;;9.93;36.47
75697;BME280;64312;44.738;20.612;2023-04-06T11:39:21;100061.22;;;8.98;36.70
75697;BME280;64312;44.738;20.612;2023-04-06T11:42:01;100282.38;;;10.79;37.25
75697;BME280;64312;44.738;20.612;2023-04-06T11:44:34;100057.81;;;9.26;35.51
75697;BME280;64312;44.738;20.612;2023-04-06T11:47:02;100270.72;;;10.72;35.38
75697;BME280;64312;44.738;20.612;2023-04-06T11:49:29;100108.66;;;9.85;38.19
75697;BME280;64312;44.738;20.612;2023-04-06T11:51:56;100042.34;;;9.49;38.82
75697;BME280;64312;44.738;20.612;2023-04-06T11:54:32;100277.91;;;10.65;36.31
75697;BME280;64312;44.738;20.612;2023-04-06T11:56:58;100209.88;;;10.50;39.30
75697;BME280;64312;44.738;20.612;2023-04-06T11:59:26;100265.50;;;10.92;37.86
75697;BME280;64312;44.738;20.612;2023-04-06T12:01:53;100257.97;;;10.88;37.05
75697;BME280;64312;44.738;20.612;2023-04-06T12:04:19;100214.72;;;10.89;36.27
75697;BME280;64312;44.738;20.612;2023-04-06T12:06:45;100090.50;;;10.64;36.58
75697;BME280;64312;44.738;20.612;2023-04-06T12:09:10;100249.34;;;11.61;36.56
75697;BME280;64312;44.738;20.612;2023-04-06T12:11:36;100238.66;;;11.81;34.78
75697;BME280;64312;44.738;20.612;2023-04-06T12:14:02;99938.63;;;10.17;34.62
75697;BME280;64312;44.738;20.612;2023-04-06T12:16:31;100213.16;;;11.84;35.37
75697;BME280;64312;44.738;20.612;2023-04-06T12:18:56;99999.31;;;9.92;35.57
75697;BME280;64312;44.738;20.612;2023-04-06T12:21:22;100167.94;;;10.69;35.11
75697;BME280;64312;44.738;20.612;2023-04-06T12:23:48;100225.72;;;10.94;34.77
75697;BME280;64312;44.738;20.612;2023-04-06T12:26:14;100185.84;;;10.76;34.02
75697;BME280;64312;44.738;20.612;2023-04-06T12:28:39;100169.53;;;10.84;34.76
75697;BME280;64312;44.738;20.612;2023-04-06T12:31:05;100192.22;;;11.03;35.46
75697;BME280;64312;44.738;20.612;2023-04-06T12:33:30;100018.97;;;10.20;35.65
75697;BME280;64312;44.738;20.612;2023-04-06T12:35:56;100033.91;;;10.23;33.84
75697;BME280;64312;44.738;20.612;2023-04-06T12:38:22;100241.03;;;10.94;35.99
75697;BME280;64312;44.738;20.612;2023-04-06T12:40:47;100229.97;;;10.33;35.86
75697;BME280;64312;44.738;20.612;2023-04-06T12:43:13;100151.69;;;9.48;37.17
75697;BME280;64312;44.738;20.612;2023-04-06T12:45:39;100070.56;;;8.87;37.96
75697;BME280;64312;44.738;20.612;2023-04-06T12:48:06;100239.25;;;9.72;38.10
75697;BME280;64312;44.738;20.612;2023-04-06T12:50:33;100173.31;;;9.26;38.31
75697;BME280;64312;44.738;20.612;2023-04-06T12:52:59;100209.81;;;10.07;37.38
75697;BME280;64312;44.738;20.612;2023-04-06T12:55:24;100172.59;;;9.68;37.01
75697;BME280;64312;44.738;20.612;2023-04-06T12:57:50;100123.31;;;9.61;36.99
75697;BME280;64312;44.738;20.612;2023-04-06T13:00:16;100124.59;;;9.29;36.39
75697;BME280;64312;44.738;20.612;2023-04-06T13:02:42;100201.41;;;9.74;37.64